Estación Meteorológica Peña el Pijo (Robertgarden) [ 11/19/17 19:01:33 CET ]

Fecha Hora Presion(HPa) Temp (°C) Humedad % Rocio (°C) Viento ( m/s) Direccion Lluvia 1Hora(mm) Lluvia 24H(mm) LLuvia Total(mm)
2017-Jul-09 01:02:04 1010.900 15.6 70 10.2         1437.96
2017-Jul-09 02:01:43 1010.700 14.9 71 9.7         1437.96
2017-Jul-09 03:01:57 1010.200 13.8 74 9.2         1437.96
2017-Jul-09 04:01:33 1010.000 12.9 77 8.9         1437.96
2017-Jul-09 05:01:34 1009.800 12.6 79 9.0         1437.96
2017-Jul-09 06:01:32 1010.000 11.9 81 8.8         1437.96
2017-Jul-09 07:01:30 1010.200 12.1 82 9.1         1437.96
2017-Jul-09 08:01:33 1010.500 14.5 85 11.8         1437.96
2017-Jul-09 09:01:36 1010.500 20.7 68 14.8         1437.96
2017-Jul-09 10:01:22 1010.600 24.9 49 13.5         1437.96
2017-Jul-09 11:01:17 1010.600 27.7 41 12.8         1437.96
2017-Jul-09 12:01:44 1010.500 30.1 33 12.0         1437.96
2017-Jul-09 13:01:21 1010.300 31.3 31 12.1         1437.96
2017-Jul-09 14:01:15 1009.600 33.0 30 13.2         1437.96
2017-Jul-09 15:01:42 1009.200 34.1 27 12.2         1437.96
2017-Jul-09 16:01:44 1008.800 36.3 24 12.3         1437.96
2017-Jul-09 17:01:44 1008.300 35.8 24 11.9         1437.96
2017-Jul-09 18:01:58 1008.100 34.1 26 11.6         1437.96
2017-Jul-09 19:02:05 1007.900 32.9 28 11.9         1437.96
2017-Jul-09 20:02:00 1008.100 31.3 29 11.1         1437.96
2017-Jul-09 21:01:46 1008.600 27.7 35 10.7         1437.96
2017-Jul-09 22:01:55 1008.900 24.4 42 10.6         1437.96
2017-Jul-09 23:01:07 1009.700 21.9 51 11.3         1437.96

Temperatura Máxima:36°    Temperatura Mínima:11°
Presión Máxima:1010.900 Hpa    Presión Mínima:1007.900 Hpa


Volver